sensor_id;sensor_type;location;lat;lon;timestamp;P1;durP1;ratioP1;P2;durP2;ratioP2
74920;SDS011;63483;47.384;8.860;2023-09-30T00:01:40;25.03;;;9.27;;
74920;SDS011;63483;47.384;8.860;2023-09-30T00:04:06;20.50;;;8.90;;
74920;SDS011;63483;47.384;8.860;2023-09-30T00:06:32;25.10;;;9.18;;
74920;SDS011;63483;47.384;8.860;2023-09-30T00:08:57;24.93;;;9.10;;
74920;SDS011;63483;47.384;8.860;2023-09-30T00:11:22;23.70;;;9.10;;
74920;SDS011;63483;47.384;8.860;2023-09-30T00:13:48;24.25;;;8.60;;
74920;SDS011;63483;47.384;8.860;2023-09-30T00:16:14;23.30;;;8.70;;
74920;SDS011;63483;47.384;8.860;2023-09-30T00:18:42;22.70;;;8.77;;
74920;SDS011;63483;47.384;8.860;2023-09-30T00:21:07;22.37;;;7.80;;
74920;SDS011;63483;47.384;8.860;2023-09-30T00:23:33;23.13;;;8.30;;
74920;SDS011;63483;47.384;8.860;2023-09-30T00:25:58;26.67;;;8.70;;
74920;SDS011;63483;47.384;8.860;2023-09-30T00:28:25;21.77;;;7.93;;
74920;SDS011;63483;47.384;8.860;2023-09-30T00:30:50;25.77;;;9.47;;
74920;SDS011;63483;47.384;8.860;2023-09-30T00:33:16;22.23;;;9.30;;
74920;SDS011;63483;47.384;8.860;2023-09-30T00:35:41;23.07;;;8.27;;
74920;SDS011;63483;47.384;8.860;2023-09-30T00:38:06;25.93;;;10.60;;
74920;SDS011;63483;47.384;8.860;2023-09-30T00:40:32;26.17;;;8.77;;
74920;SDS011;63483;47.384;8.860;2023-09-30T00:42:57;25.13;;;9.40;;
74920;SDS011;63483;47.384;8.860;2023-09-30T00:45:23;22.53;;;8.57;;
74920;SDS011;63483;47.384;8.860;2023-09-30T00:47:48;22.50;;;8.70;;
74920;SDS011;63483;47.384;8.860;2023-09-30T00:50:13;20.95;;;8.75;;
74920;SDS011;63483;47.384;8.860;2023-09-30T00:52:39;23.13;;;8.60;;
74920;SDS011;63483;47.384;8.860;2023-09-30T00:55:06;23.42;;;8.40;;
74920;SDS011;63483;47.384;8.860;2023-09-30T00:57:32;20.67;;;8.50;;
74920;SDS011;63483;47.384;8.860;2023-09-30T00:59:59;21.00;;;7.87;;
74920;SDS011;63483;47.384;8.860;2023-09-30T01:02:26;22.20;;;8.10;;
74920;SDS011;63483;47.384;8.860;2023-09-30T01:04:51;24.92;;;9.05;;
74920;SDS011;63483;47.384;8.860;2023-09-30T01:07:17;28.27;;;9.03;;
74920;SDS011;63483;47.384;8.860;2023-09-30T01:09:42;23.43;;;8.20;;
74920;SDS011;63483;47.384;8.860;2023-09-30T01:12:08;23.13;;;8.77;;
74920;SDS011;63483;47.384;8.860;2023-09-30T01:14:34;20.00;;;8.17;;
74920;SDS011;63483;47.384;8.860;2023-09-30T01:17:00;19.48;;;7.18;;
74920;SDS011;63483;47.384;8.860;2023-09-30T01:19:26;22.23;;;8.50;;
74920;SDS011;63483;47.384;8.860;2023-09-30T01:21:55;23.10;;;7.88;;
74920;SDS011;63483;47.384;8.860;2023-09-30T01:24:29;22.70;;;7.93;;
74920;SDS011;63483;47.384;8.860;2023-09-30T01:26:55;23.30;;;8.77;;
74920;SDS011;63483;47.384;8.860;2023-09-30T01:29:23;21.77;;;8.52;;
74920;SDS011;63483;47.384;8.860;2023-09-30T01:31:50;21.85;;;7.85;;
74920;SDS011;63483;47.384;8.860;2023-09-30T01:34:16;22.87;;;7.73;;
74920;SDS011;63483;47.384;8.860;2023-09-30T01:36:42;24.20;;;8.37;;
74920;SDS011;63483;47.384;8.860;2023-09-30T01:39:09;24.40;;;8.13;;
74920;SDS011;63483;47.384;8.860;2023-09-30T01:41:35;20.65;;;7.78;;
74920;SDS011;63483;47.384;8.860;2023-09-30T01:44:05;24.60;;;8.38;;
74920;SDS011;63483;47.384;8.860;2023-09-30T01:46:30;24.23;;;7.75;;
74920;SDS011;63483;47.384;8.860;2023-09-30T01:48:56;20.33;;;7.67;;
74920;SDS011;63483;47.384;8.860;2023-09-30T01:51:21;20.67;;;7.60;;
74920;SDS011;63483;47.384;8.860;2023-09-30T01:53:47;21.27;;;7.90;;
74920;SDS011;63483;47.384;8.860;2023-09-30T01:56:12;25.02;;;8.63;;
74920;SDS011;63483;47.384;8.860;2023-09-30T01:58:38;19.17;;;7.10;;
74920;SDS011;63483;47.384;8.860;2023-09-30T02:01:03;21.40;;;6.93;;
74920;SDS011;63483;47.384;8.860;2023-09-30T02:03:29;22.50;;;7.50;;
74920;SDS011;63483;47.384;8.860;2023-09-30T02:05:55;21.58;;;7.15;;
74920;SDS011;63483;47.384;8.860;2023-09-30T02:08:22;19.38;;;7.00;;
74920;SDS011;63483;47.384;8.860;2023-09-30T02:10:48;20.83;;;7.93;;
74920;SDS011;63483;47.384;8.860;2023-09-30T02:13:14;18.43;;;6.93;;
74920;SDS011;63483;47.384;8.860;2023-09-30T02:15:42;23.33;;;7.03;;
74920;SDS011;63483;47.384;8.860;2023-09-30T02:18:07;23.30;;;7.78;;
74920;SDS011;63483;47.384;8.860;2023-09-30T02:20:34;21.83;;;7.18;;
74920;SDS011;63483;47.384;8.860;2023-09-30T02:22:59;24.17;;;7.80;;
74920;SDS011;63483;47.384;8.860;2023-09-30T02:25:27;25.42;;;9.32;;
74920;SDS011;63483;47.384;8.860;2023-09-30T02:27:52;23.07;;;8.00;;
74920;SDS011;63483;47.384;8.860;2023-09-30T02:30:17;22.30;;;8.47;;
74920;SDS011;63483;47.384;8.860;2023-09-30T02:32:43;21.48;;;8.02;;
74920;SDS011;63483;47.384;8.860;2023-09-30T02:35:11;21.97;;;7.60;;
74920;SDS011;63483;47.384;8.860;2023-09-30T02:37:37;22.33;;;8.25;;
74920;SDS011;63483;47.384;8.860;2023-09-30T02:40:05;21.63;;;7.37;;
74920;SDS011;63483;47.384;8.860;2023-09-30T02:42:34;23.73;;;7.68;;
74920;SDS011;63483;47.384;8.860;2023-09-30T02:45:04;21.33;;;7.65;;
74920;SDS011;63483;47.384;8.860;2023-09-30T02:47:30;18.60;;;6.85;;
74920;SDS011;63483;47.384;8.860;2023-09-30T02:49:56;22.03;;;7.63;;
74920;SDS011;63483;47.384;8.860;2023-09-30T02:52:23;20.55;;;7.85;;
74920;SDS011;63483;47.384;8.860;2023-09-30T02:54:52;21.17;;;7.43;;
74920;SDS011;63483;47.384;8.860;2023-09-30T02:57:17;22.07;;;7.63;;
74920;SDS011;63483;47.384;8.860;2023-09-30T02:59:43;19.30;;;7.13;;
74920;SDS011;63483;47.384;8.860;2023-09-30T03:02:09;20.17;;;7.20;;
74920;SDS011;63483;47.384;8.860;2023-09-30T03:04:36;21.75;;;7.97;;
74920;SDS011;63483;47.384;8.860;2023-09-30T03:07:01;21.87;;;7.57;;
74920;SDS011;63483;47.384;8.860;2023-09-30T03:09:27;21.30;;;7.70;;
74920;SDS011;63483;47.384;8.860;2023-09-30T03:11:52;22.00;;;8.00;;
74920;SDS011;63483;47.384;8.860;2023-09-30T03:14:21;24.42;;;8.07;;
74920;SDS011;63483;47.384;8.860;2023-09-30T03:16:46;20.70;;;7.82;;
74920;SDS011;63483;47.384;8.860;2023-09-30T03:19:12;18.80;;;7.30;;
74920;SDS011;63483;47.384;8.860;2023-09-30T03:21:37;21.70;;;7.57;;
74920;SDS011;63483;47.384;8.860;2023-09-30T03:24:03;20.05;;;7.05;;
74920;SDS011;63483;47.384;8.860;2023-09-30T03:26:30;19.10;;;6.77;;
74920;SDS011;63483;47.384;8.860;2023-09-30T03:28:55;18.15;;;6.60;;
74920;SDS011;63483;47.384;8.860;2023-09-30T03:31:21;20.65;;;6.97;;
74920;SDS011;63483;47.384;8.860;2023-09-30T03:33:47;19.00;;;6.80;;
74920;SDS011;63483;47.384;8.860;2023-09-30T03:36:16;22.63;;;7.43;;
74920;SDS011;63483;47.384;8.860;2023-09-30T03:38:41;18.48;;;6.95;;
74920;SDS011;63483;47.384;8.860;2023-09-30T03:41:07;18.97;;;6.40;;
74920;SDS011;63483;47.384;8.860;2023-09-30T03:43:33;19.83;;;7.28;;
74920;SDS011;63483;47.384;8.860;2023-09-30T03:46:01;19.17;;;6.93;;
74920;SDS011;63483;47.384;8.860;2023-09-30T03:48:27;21.90;;;7.83;;
74920;SDS011;63483;47.384;8.860;2023-09-30T03:50:52;18.53;;;6.57;;
74920;SDS011;63483;47.384;8.860;2023-09-30T03:53:18;21.65;;;7.70;;
74920;SDS011;63483;47.384;8.860;2023-09-30T03:55:44;20.92;;;7.47;;
74920;SDS011;63483;47.384;8.860;2023-09-30T03:58:10;16.70;;;6.77;;
74920;SDS011;63483;47.384;8.860;2023-09-30T04:00:37;19.52;;;7.30;;
74920;SDS011;63483;47.384;8.860;2023-09-30T04:03:03;17.80;;;6.87;;
74920;SDS011;63483;47.384;8.860;2023-09-30T04:05:28;21.73;;;7.47;;
74920;SDS011;63483;47.384;8.860;2023-09-30T04:07:57;20.90;;;7.43;;
74920;SDS011;63483;47.384;8.860;2023-09-30T04:10:23;20.55;;;7.78;;
74920;SDS011;63483;47.384;8.860;2023-09-30T04:12:48;19.20;;;6.93;;
74920;SDS011;63483;47.384;8.860;2023-09-30T04:15:14;19.35;;;7.20;;
74920;SDS011;63483;47.384;8.860;2023-09-30T04:17:40;20.88;;;8.25;;
74920;SDS011;63483;47.384;8.860;2023-09-30T04:20:06;19.90;;;6.80;;
74920;SDS011;63483;47.384;8.860;2023-09-30T04:22:41;19.77;;;7.93;;
74920;SDS011;63483;47.384;8.860;2023-09-30T04:25:07;19.42;;;7.50;;
74920;SDS011;63483;47.384;8.860;2023-09-30T04:27:37;19.88;;;7.05;;
74920;SDS011;63483;47.384;8.860;2023-09-30T04:30:03;19.63;;;6.67;;
74920;SDS011;63483;47.384;8.860;2023-09-30T04:32:34;19.40;;;6.50;;
74920;SDS011;63483;47.384;8.860;2023-09-30T04:35:06;18.87;;;6.83;;
74920;SDS011;63483;47.384;8.860;2023-09-30T04:37:36;19.02;;;6.65;;
74920;SDS011;63483;47.384;8.860;2023-09-30T04:40:05;17.85;;;6.38;;
74920;SDS011;63483;47.384;8.860;2023-09-30T04:42:33;17.83;;;6.88;;
74920;SDS011;63483;47.384;8.860;2023-09-30T04:45:02;20.23;;;6.88;;
74920;SDS011;63483;47.384;8.860;2023-09-30T04:47:31;21.40;;;7.27;;
74920;SDS011;63483;47.384;8.860;2023-09-30T04:49:57;20.23;;;7.40;;
74920;SDS011;63483;47.384;8.860;2023-09-30T04:52:23;20.02;;;7.10;;
74920;SDS011;63483;47.384;8.860;2023-09-30T04:54:52;17.67;;;7.40;;
74920;SDS011;63483;47.384;8.860;2023-09-30T04:57:17;18.40;;;6.30;;
74920;SDS011;63483;47.384;8.860;2023-09-30T04:59:44;19.90;;;7.20;;
74920;SDS011;63483;47.384;8.860;2023-09-30T05:02:09;20.17;;;7.13;;
74920;SDS011;63483;47.384;8.860;2023-09-30T05:04:36;17.20;;;6.90;;
74920;SDS011;63483;47.384;8.860;2023-09-30T05:07:01;23.15;;;8.43;;
74920;SDS011;63483;47.384;8.860;2023-09-30T05:09:28;19.65;;;6.75;;
74920;SDS011;63483;47.384;8.860;2023-09-30T05:11:54;14.57;;;5.73;;
74920;SDS011;63483;47.384;8.860;2023-09-30T05:14:20;21.65;;;7.65;;
74920;SDS011;63483;47.384;8.860;2023-09-30T05:16:46;20.10;;;6.80;;
74920;SDS011;63483;47.384;8.860;2023-09-30T05:19:12;19.60;;;6.25;;
74920;SDS011;63483;47.384;8.860;2023-09-30T05:21:37;17.13;;;6.77;;
74920;SDS011;63483;47.384;8.860;2023-09-30T05:24:03;19.63;;;7.28;;
74920;SDS011;63483;47.384;8.860;2023-09-30T05:26:30;20.10;;;6.87;;
74920;SDS011;63483;47.384;8.860;2023-09-30T05:28:55;20.23;;;7.90;;
74920;SDS011;63483;47.384;8.860;2023-09-30T05:31:20;20.50;;;6.90;;
74920;SDS011;63483;47.384;8.860;2023-09-30T05:33:46;19.57;;;6.87;;
74920;SDS011;63483;47.384;8.860;2023-09-30T05:36:11;17.03;;;7.03;;
74920;SDS011;63483;47.384;8.860;2023-09-30T05:38:38;19.88;;;7.18;;
74920;SDS011;63483;47.384;8.860;2023-09-30T05:41:04;21.10;;;8.00;;
74920;SDS011;63483;47.384;8.860;2023-09-30T05:43:31;19.20;;;7.50;;
74920;SDS011;63483;47.384;8.860;2023-09-30T05:45:57;21.20;;;6.97;;
74920;SDS011;63483;47.384;8.860;2023-09-30T05:48:23;21.17;;;7.55;;
74920;SDS011;63483;47.384;8.860;2023-09-30T05:50:48;18.63;;;7.30;;
74920;SDS011;63483;47.384;8.860;2023-09-30T05:53:14;18.87;;;6.03;;
74920;SDS011;63483;47.384;8.860;2023-09-30T05:55:40;20.00;;;6.87;;
74920;SDS011;63483;47.384;8.860;2023-09-30T05:58:12;20.48;;;7.45;;
74920;SDS011;63483;47.384;8.860;2023-09-30T06:00:39;20.88;;;7.85;;
74920;SDS011;63483;47.384;8.860;2023-09-30T06:03:05;21.20;;;8.40;;
74920;SDS011;63483;47.384;8.860;2023-09-30T06:05:31;20.00;;;7.57;;
74920;SDS011;63483;47.384;8.860;2023-09-30T06:07:57;20.40;;;7.82;;
74920;SDS011;63483;47.384;8.860;2023-09-30T06:10:24;22.52;;;7.50;;
74920;SDS011;63483;47.384;8.860;2023-09-30T06:12:51;19.70;;;7.40;;
74920;SDS011;63483;47.384;8.860;2023-09-30T06:15:20;20.33;;;7.88;;
74920;SDS011;63483;47.384;8.860;2023-09-30T06:17:49;19.85;;;7.70;;
74920;SDS011;63483;47.384;8.860;2023-09-30T06:20:17;20.58;;;7.95;;
74920;SDS011;63483;47.384;8.860;2023-09-30T06:22:45;20.88;;;7.30;;
74920;SDS011;63483;47.384;8.860;2023-09-30T06:25:12;19.80;;;7.00;;
74920;SDS011;63483;47.384;8.860;2023-09-30T06:27:38;20.33;;;7.15;;
74920;SDS011;63483;47.384;8.860;2023-09-30T06:30:04;22.52;;;8.02;;
74920;SDS011;63483;47.384;8.860;2023-09-30T06:32:30;21.80;;;7.43;;
74920;SDS011;63483;47.384;8.860;2023-09-30T06:34:55;21.02;;;7.90;;
74920;SDS011;63483;47.384;8.860;2023-09-30T06:37:21;21.90;;;7.87;;
74920;SDS011;63483;47.384;8.860;2023-09-30T06:39:47;19.93;;;6.80;;
74920;SDS011;63483;47.384;8.860;2023-09-30T06:42:13;19.02;;;6.72;;
74920;SDS011;63483;47.384;8.860;2023-09-30T06:44:38;19.80;;;5.87;;
74920;SDS011;63483;47.384;8.860;2023-09-30T06:47:04;17.63;;;6.13;;
74920;SDS011;63483;47.384;8.860;2023-09-30T06:49:29;16.67;;;6.40;;
74920;SDS011;63483;47.384;8.860;2023-09-30T06:51:55;17.73;;;6.03;;
74920;SDS011;63483;47.384;8.860;2023-09-30T06:54:21;18.60;;;6.63;;
74920;SDS011;63483;47.384;8.860;2023-09-30T06:56:46;17.40;;;7.07;;
74920;SDS011;63483;47.384;8.860;2023-09-30T06:59:11;17.93;;;5.87;;
74920;SDS011;63483;47.384;8.860;2023-09-30T07:01:37;17.27;;;6.23;;
74920;SDS011;63483;47.384;8.860;2023-09-30T07:04:02;17.77;;;6.30;;
74920;SDS011;63483;47.384;8.860;2023-09-30T07:06:28;14.43;;;5.80;;
74920;SDS011;63483;47.384;8.860;2023-09-30T07:08:53;18.00;;;6.18;;
74920;SDS011;63483;47.384;8.860;2023-09-30T07:11:28;16.97;;;5.97;;
74920;SDS011;63483;47.384;8.860;2023-09-30T07:13:55;16.60;;;5.45;;
74920;SDS011;63483;47.384;8.860;2023-09-30T07:16:21;15.93;;;5.72;;
74920;SDS011;63483;47.384;8.860;2023-09-30T07:18:46;16.97;;;5.93;;
74920;SDS011;63483;47.384;8.860;2023-09-30T07:21:13;14.67;;;5.40;;
74920;SDS011;63483;47.384;8.860;2023-09-30T07:23:38;16.70;;;5.90;;
74920;SDS011;63483;47.384;8.860;2023-09-30T07:26:03;15.43;;;5.60;;
74920;SDS011;63483;47.384;8.860;2023-09-30T07:28:29;13.63;;;4.80;;
74920;SDS011;63483;47.384;8.860;2023-09-30T07:30:54;14.93;;;5.77;;
74920;SDS011;63483;47.384;8.860;2023-09-30T07:33:20;14.07;;;5.20;;
74920;SDS011;63483;47.384;8.860;2023-09-30T07:35:45;15.53;;;5.33;;
74920;SDS011;63483;47.384;8.860;2023-09-30T07:38:11;15.27;;;5.70;;
74920;SDS011;63483;47.384;8.860;2023-09-30T07:40:36;15.70;;;5.23;;
74920;SDS011;63483;47.384;8.860;2023-09-30T07:43:02;15.70;;;5.43;;
74920;SDS011;63483;47.384;8.860;2023-09-30T07:45:27;16.43;;;5.67;;
74920;SDS011;63483;47.384;8.860;2023-09-30T07:47:53;13.93;;;5.27;;
74920;SDS011;63483;47.384;8.860;2023-09-30T07:50:18;14.35;;;5.18;;
74920;SDS011;63483;47.384;8.860;2023-09-30T07:52:44;14.07;;;5.13;;
74920;SDS011;63483;47.384;8.860;2023-09-30T07:55:10;15.98;;;4.90;;
74920;SDS011;63483;47.384;8.860;2023-09-30T07:57:35;14.27;;;5.23;;
74920;SDS011;63483;47.384;8.860;2023-09-30T08:00:02;11.85;;;4.25;;
74920;SDS011;63483;47.384;8.860;2023-09-30T08:02:33;15.30;;;4.60;;
74920;SDS011;63483;47.384;8.860;2023-09-30T08:04:58;14.60;;;4.90;;
74920;SDS011;63483;47.384;8.860;2023-09-30T08:07:25;15.25;;;5.38;;
74920;SDS011;63483;47.384;8.860;2023-09-30T08:09:51;13.27;;;4.47;;
74920;SDS011;63483;47.384;8.860;2023-09-30T08:12:16;13.03;;;4.47;;
74920;SDS011;63483;47.384;8.860;2023-09-30T08:14:41;13.40;;;4.93;;
74920;SDS011;63483;47.384;8.860;2023-09-30T08:17:09;15.32;;;4.75;;
74920;SDS011;63483;47.384;8.860;2023-09-30T08:19:35;10.60;;;3.65;;
74920;SDS011;63483;47.384;8.860;2023-09-30T08:22:00;12.77;;;4.53;;
74920;SDS011;63483;47.384;8.860;2023-09-30T08:24:28;13.23;;;4.53;;
74920;SDS011;63483;47.384;8.860;2023-09-30T08:26:54;13.27;;;4.13;;
74920;SDS011;63483;47.384;8.860;2023-09-30T08:29:20;15.52;;;5.18;;
74920;SDS011;63483;47.384;8.860;2023-09-30T08:31:46;12.75;;;4.32;;
74920;SDS011;63483;47.384;8.860;2023-09-30T08:34:11;13.60;;;4.33;;
74920;SDS011;63483;47.384;8.860;2023-09-30T08:36:39;12.95;;;4.32;;
74920;SDS011;63483;47.384;8.860;2023-09-30T08:39:04;12.80;;;4.43;;
74920;SDS011;63483;47.384;8.860;2023-09-30T08:41:31;11.30;;;3.90;;
74920;SDS011;63483;47.384;8.860;2023-09-30T08:44:00;12.80;;;3.90;;
74920;SDS011;63483;47.384;8.860;2023-09-30T08:46:28;10.10;;;3.42;;
74920;SDS011;63483;47.384;8.860;2023-09-30T08:48:57;10.98;;;4.30;;
74920;SDS011;63483;47.384;8.860;2023-09-30T08:51:24;10.70;;;4.10;;
74920;SDS011;63483;47.384;8.860;2023-09-30T08:53:50;12.50;;;4.32;;
74920;SDS011;63483;47.384;8.860;2023-09-30T08:56:17;11.88;;;4.22;;
74920;SDS011;63483;47.384;8.860;2023-09-30T08:58:45;11.85;;;3.95;;
74920;SDS011;63483;47.384;8.860;2023-09-30T09:01:11;11.43;;;3.67;;
74920;SDS011;63483;47.384;8.860;2023-09-30T09:03:37;12.20;;;3.97;;
74920;SDS011;63483;47.384;8.860;2023-09-30T09:06:04;12.50;;;4.05;;
74920;SDS011;63483;47.384;8.860;2023-09-30T09:08:29;11.70;;;4.03;;
74920;SDS011;63483;47.384;8.860;2023-09-30T09:10:57;11.40;;;4.17;;
74920;SDS011;63483;47.384;8.860;2023-09-30T09:13:25;11.80;;;4.28;;
74920;SDS011;63483;47.384;8.860;2023-09-30T09:16:07;14.40;;;4.55;;
74920;SDS011;63483;47.384;8.860;2023-09-30T09:18:33;12.43;;;4.50;;
74920;SDS011;63483;47.384;8.860;2023-09-30T09:21:17;13.38;;;4.60;;
74920;SDS011;63483;47.384;8.860;2023-09-30T09:23:45;10.57;;;3.80;;
74920;SDS011;63483;47.384;8.860;2023-09-30T09:26:13;11.10;;;4.18;;
74920;SDS011;63483;47.384;8.860;2023-09-30T09:28:49;10.73;;;4.40;;
74920;SDS011;63483;47.384;8.860;2023-09-30T09:31:21;12.93;;;4.33;;
74920;SDS011;63483;47.384;8.860;2023-09-30T09:33:48;11.10;;;3.92;;
74920;SDS011;63483;47.384;8.860;2023-09-30T09:36:14;15.23;;;4.68;;
74920;SDS011;63483;47.384;8.860;2023-09-30T09:38:44;11.43;;;3.65;;
74920;SDS011;63483;47.384;8.860;2023-09-30T09:41:09;13.03;;;4.70;;
74920;SDS011;63483;47.384;8.860;2023-09-30T09:43:36;12.13;;;4.45;;
74920;SDS011;63483;47.384;8.860;2023-09-30T09:46:03;11.37;;;3.73;;
74920;SDS011;63483;47.384;8.860;2023-09-30T09:48:32;15.43;;;4.43;;
74920;SDS011;63483;47.384;8.860;2023-09-30T09:51:02;11.05;;;4.07;;
74920;SDS011;63483;47.384;8.860;2023-09-30T09:53:30;13.43;;;4.20;;
74920;SDS011;63483;47.384;8.860;2023-09-30T09:55:59;13.20;;;4.78;;
74920;SDS011;63483;47.384;8.860;2023-09-30T09:58:25;15.73;;;4.90;;
74920;SDS011;63483;47.384;8.860;2023-09-30T10:00:52;14.70;;;4.80;;
74920;SDS011;63483;47.384;8.860;2023-09-30T10:03:17;13.70;;;4.30;;
74920;SDS011;63483;47.384;8.860;2023-09-30T10:05:43;16.37;;;5.77;;
74920;SDS011;63483;47.384;8.860;2023-09-30T10:08:11;13.95;;;4.50;;
74920;SDS011;63483;47.384;8.860;2023-09-30T10:10:39;13.70;;;4.75;;
74920;SDS011;63483;47.384;8.860;2023-09-30T10:13:05;13.70;;;4.60;;
74920;SDS011;63483;47.384;8.860;2023-09-30T10:15:37;14.07;;;4.93;;
74920;SDS011;63483;47.384;8.860;2023-09-30T10:18:11;13.13;;;4.40;;
74920;SDS011;63483;47.384;8.860;2023-09-30T10:20:41;12.30;;;4.77;;
74920;SDS011;63483;47.384;8.860;2023-09-30T10:25:52;12.85;;;5.22;;
74920;SDS011;63483;47.384;8.860;2023-09-30T10:36:31;14.60;;;5.95;;
74920;SDS011;63483;47.384;8.860;2023-09-30T10:38:58;14.75;;;5.22;;
74920;SDS011;63483;47.384;8.860;2023-09-30T10:46:58;14.80;;;5.40;;
74920;SDS011;63483;47.384;8.860;2023-09-30T10:51:50;14.23;;;5.50;;
74920;SDS011;63483;47.384;8.860;2023-09-30T10:54:21;14.05;;;5.20;;
74920;SDS011;63483;47.384;8.860;2023-09-30T10:56:50;12.77;;;4.75;;
74920;SDS011;63483;47.384;8.860;2023-09-30T10:59:24;14.10;;;5.50;;
74920;SDS011;63483;47.384;8.860;2023-09-30T11:01:50;14.73;;;4.80;;
74920;SDS011;63483;47.384;8.860;2023-09-30T11:04:18;13.52;;;5.65;;
74920;SDS011;63483;47.384;8.860;2023-09-30T11:06:44;14.60;;;5.60;;
74920;SDS011;63483;47.384;8.860;2023-09-30T11:09:14;14.98;;;5.55;;
74920;SDS011;63483;47.384;8.860;2023-09-30T11:11:43;12.67;;;5.03;;
74920;SDS011;63483;47.384;8.860;2023-09-30T11:14:20;15.55;;;6.15;;
74920;SDS011;63483;47.384;8.860;2023-09-30T11:16:55;16.10;;;5.55;;
74920;SDS011;63483;47.384;8.860;2023-09-30T11:19:24;16.08;;;5.72;;
74920;SDS011;63483;47.384;8.860;2023-09-30T11:21:51;17.63;;;6.57;;
74920;SDS011;63483;47.384;8.860;2023-09-30T11:24:17;16.33;;;6.43;;
74920;SDS011;63483;47.384;8.860;2023-09-30T11:26:44;14.40;;;5.88;;
74920;SDS011;63483;47.384;8.860;2023-09-30T11:31:39;14.27;;;5.17;;
74920;SDS011;63483;47.384;8.860;2023-09-30T11:34:05;14.95;;;5.28;;
74920;SDS011;63483;47.384;8.860;2023-09-30T11:36:34;13.55;;;4.50;;
74920;SDS011;63483;47.384;8.860;2023-09-30T11:39:00;15.43;;;5.70;;
74920;SDS011;63483;47.384;8.860;2023-09-30T11:41:35;16.63;;;5.50;;
74920;SDS011;63483;47.384;8.860;2023-09-30T11:44:04;16.70;;;5.10;;
74920;SDS011;63483;47.384;8.860;2023-09-30T11:46:52;17.33;;;5.70;;
74920;SDS011;63483;47.384;8.860;2023-09-30T11:49:32;12.85;;;4.65;;
74920;SDS011;63483;47.384;8.860;2023-09-30T11:52:02;13.15;;;5.55;;
74920;SDS011;63483;47.384;8.860;2023-09-30T11:54:36;16.00;;;5.78;;
74920;SDS011;63483;47.384;8.860;2023-09-30T11:57:09;14.77;;;5.37;;
74920;SDS011;63483;47.384;8.860;2023-09-30T11:59:44;16.60;;;6.03;;
74920;SDS011;63483;47.384;8.860;2023-09-30T12:02:11;15.48;;;4.70;;
74920;SDS011;63483;47.384;8.860;2023-09-30T12:04:37;15.40;;;6.15;;
74920;SDS011;63483;47.384;8.860;2023-09-30T12:07:03;12.00;;;4.55;;
74920;SDS011;63483;47.384;8.860;2023-09-30T12:09:29;16.00;;;5.70;;
74920;SDS011;63483;47.384;8.860;2023-09-30T12:11:56;13.45;;;4.88;;
74920;SDS011;63483;47.384;8.860;2023-09-30T12:14:22;16.73;;;5.32;;
74920;SDS011;63483;47.384;8.860;2023-09-30T12:16:48;14.17;;;5.13;;
74920;SDS011;63483;47.384;8.860;2023-09-30T12:19:14;14.27;;;5.03;;
74920;SDS011;63483;47.384;8.860;2023-09-30T12:21:40;15.32;;;5.97;;
74920;SDS011;63483;47.384;8.860;2023-09-30T12:24:07;14.50;;;5.33;;
74920;SDS011;63483;47.384;8.860;2023-09-30T12:26:34;13.75;;;5.38;;
74920;SDS011;63483;47.384;8.860;2023-09-30T12:29:00;14.55;;;5.47;;
74920;SDS011;63483;47.384;8.860;2023-09-30T12:31:25;12.50;;;4.60;;
74920;SDS011;63483;47.384;8.860;2023-09-30T12:33:50;15.77;;;5.23;;
74920;SDS011;63483;47.384;8.860;2023-09-30T12:36:17;14.63;;;5.38;;
74920;SDS011;63483;47.384;8.860;2023-09-30T12:38:43;15.25;;;5.32;;
74920;SDS011;63483;47.384;8.860;2023-09-30T12:41:09;14.53;;;5.23;;
74920;SDS011;63483;47.384;8.860;2023-09-30T12:43:34;15.93;;;6.10;;
74920;SDS011;63483;47.384;8.860;2023-09-30T12:46:00;15.47;;;5.43;;
74920;SDS011;63483;47.384;8.860;2023-09-30T12:48:25;14.73;;;6.13;;
74920;SDS011;63483;47.384;8.860;2023-09-30T12:50:51;15.13;;;5.43;;
74920;SDS011;63483;47.384;8.860;2023-09-30T12:53:16;15.40;;;5.67;;
74920;SDS011;63483;47.384;8.860;2023-09-30T12:55:41;14.30;;;5.20;;
74920;SDS011;63483;47.384;8.860;2023-09-30T12:58:07;15.40;;;6.13;;
74920;SDS011;63483;47.384;8.860;2023-09-30T13:00:33;13.37;;;4.67;;
74920;SDS011;63483;47.384;8.860;2023-09-30T13:03:00;11.90;;;4.28;;
74920;SDS011;63483;47.384;8.860;2023-09-30T13:05:26;14.63;;;5.82;;
74920;SDS011;63483;47.384;8.860;2023-09-30T13:07:54;14.20;;;4.70;;
74920;SDS011;63483;47.384;8.860;2023-09-30T13:10:19;15.43;;;5.50;;
74920;SDS011;63483;47.384;8.860;2023-09-30T13:12:45;12.37;;;5.13;;
74920;SDS011;63483;47.384;8.860;2023-09-30T13:15:10;14.80;;;5.40;;
74920;SDS011;63483;47.384;8.860;2023-09-30T13:17:35;12.30;;;5.30;;
74920;SDS011;63483;47.384;8.860;2023-09-30T13:20:01;14.47;;;5.40;;
74920;SDS011;63483;47.384;8.860;2023-09-30T13:22:30;12.20;;;4.90;;
74920;SDS011;63483;47.384;8.860;2023-09-30T13:24:57;15.80;;;5.63;;
74920;SDS011;63483;47.384;8.860;2023-09-30T13:27:22;12.60;;;4.75;;
74920;SDS011;63483;47.384;8.860;2023-09-30T13:29:48;15.83;;;5.77;;
74920;SDS011;63483;47.384;8.860;2023-09-30T13:32:13;14.93;;;5.73;;
74920;SDS011;63483;47.384;8.860;2023-09-30T13:34:39;12.38;;;4.93;;
74920;SDS011;63483;47.384;8.860;2023-09-30T13:37:05;14.77;;;4.97;;
74920;SDS011;63483;47.384;8.860;2023-09-30T13:39:30;13.77;;;5.07;;
74920;SDS011;63483;47.384;8.860;2023-09-30T13:41:56;14.60;;;5.20;;
74920;SDS011;63483;47.384;8.860;2023-09-30T13:44:21;14.45;;;5.45;;
74920;SDS011;63483;47.384;8.860;2023-09-30T13:46:47;13.17;;;5.00;;
74920;SDS011;63483;47.384;8.860;2023-09-30T13:49:12;11.93;;;4.70;;
74920;SDS011;63483;47.384;8.860;2023-09-30T13:51:38;14.60;;;5.30;;
74920;SDS011;63483;47.384;8.860;2023-09-30T13:54:04;13.43;;;5.50;;
74920;SDS011;63483;47.384;8.860;2023-09-30T13:56:29;9.88;;;4.28;;
74920;SDS011;63483;47.384;8.860;2023-09-30T13:58:55;13.07;;;4.60;;
74920;SDS011;63483;47.384;8.860;2023-09-30T14:01:22;15.23;;;6.22;;
74920;SDS011;63483;47.384;8.860;2023-09-30T14:03:48;13.00;;;4.93;;
74920;SDS011;63483;47.384;8.860;2023-09-30T14:06:13;13.60;;;5.03;;
74920;SDS011;63483;47.384;8.860;2023-09-30T14:08:39;15.40;;;5.73;;
74920;SDS011;63483;47.384;8.860;2023-09-30T14:11:07;14.05;;;4.82;;
74920;SDS011;63483;47.384;8.860;2023-09-30T14:13:33;12.00;;;4.82;;
74920;SDS011;63483;47.384;8.860;2023-09-30T14:15:59;18.40;;;5.63;;
74920;SDS011;63483;47.384;8.860;2023-09-30T14:18:24;13.60;;;4.40;;
74920;SDS011;63483;47.384;8.860;2023-09-30T14:20:49;15.20;;;5.27;;
74920;SDS011;63483;47.384;8.860;2023-09-30T14:23:15;13.98;;;4.72;;
74920;SDS011;63483;47.384;8.860;2023-09-30T14:25:40;13.17;;;5.20;;
74920;SDS011;63483;47.384;8.860;2023-09-30T14:28:06;17.73;;;5.25;;
74920;SDS011;63483;47.384;8.860;2023-09-30T14:30:32;16.70;;;5.17;;
74920;SDS011;63483;47.384;8.860;2023-09-30T14:32:58;15.10;;;5.15;;
74920;SDS011;63483;47.384;8.860;2023-09-30T14:35:23;13.70;;;5.03;;
74920;SDS011;63483;47.384;8.860;2023-09-30T14:37:49;14.50;;;5.30;;
74920;SDS011;63483;47.384;8.860;2023-09-30T14:40:14;14.87;;;6.13;;
74920;SDS011;63483;47.384;8.860;2023-09-30T14:42:41;13.77;;;4.93;;
74920;SDS011;63483;47.384;8.860;2023-09-30T14:45:07;13.90;;;4.70;;
74920;SDS011;63483;47.384;8.860;2023-09-30T14:47:33;14.27;;;5.10;;
74920;SDS011;63483;47.384;8.860;2023-09-30T14:49:58;14.17;;;5.03;;
74920;SDS011;63483;47.384;8.860;2023-09-30T14:52:26;16.38;;;4.95;;